sensor_id;sensor_type;location;lat;lon;timestamp;P1;durP1;ratioP1;P2;durP2;ratioP2
55146;SDS011;41039;49.830;23.988;2022-10-16T00:00:40;12.82;;;7.78;;
55146;SDS011;41039;49.830;23.988;2022-10-16T00:03:06;15.43;;;8.00;;
55146;SDS011;41039;49.830;23.988;2022-10-16T00:05:31;12.80;;;7.50;;
55146;SDS011;41039;49.830;23.988;2022-10-16T00:07:57;16.15;;;6.82;;
55146;SDS011;41039;49.830;23.988;2022-10-16T00:10:22;13.20;;;6.90;;
55146;SDS011;41039;49.830;23.988;2022-10-16T00:12:47;13.38;;;6.90;;
55146;SDS011;41039;49.830;23.988;2022-10-16T00:15:12;12.85;;;7.38;;
55146;SDS011;41039;49.830;23.988;2022-10-16T00:17:38;15.75;;;7.63;;
55146;SDS011;41039;49.830;23.988;2022-10-16T00:20:03;10.63;;;6.90;;
55146;SDS011;41039;49.830;23.988;2022-10-16T00:22:28;17.55;;;7.38;;
55146;SDS011;41039;49.830;23.988;2022-10-16T00:24:54;18.90;;;7.78;;
55146;SDS011;41039;49.830;23.988;2022-10-16T00:27:19;21.33;;;7.93;;
55146;SDS011;41039;49.830;23.988;2022-10-16T00:29:44;12.05;;;6.30;;
55146;SDS011;41039;49.830;23.988;2022-10-16T00:32:10;13.13;;;6.72;;
55146;SDS011;41039;49.830;23.988;2022-10-16T00:34:35;12.38;;;7.32;;
55146;SDS011;41039;49.830;23.988;2022-10-16T00:37:00;11.88;;;7.05;;
55146;SDS011;41039;49.830;23.988;2022-10-16T00:39:25;11.80;;;6.93;;
55146;SDS011;41039;49.830;23.988;2022-10-16T00:41:51;15.00;;;6.70;;
55146;SDS011;41039;49.830;23.988;2022-10-16T00:47:00;12.93;;;6.90;;
55146;SDS011;41039;49.830;23.988;2022-10-16T00:49:25;12.60;;;7.18;;
55146;SDS011;41039;49.830;23.988;2022-10-16T00:51:51;15.30;;;7.68;;
55146;SDS011;41039;49.830;23.988;2022-10-16T00:54:19;13.15;;;6.88;;
55146;SDS011;41039;49.830;23.988;2022-10-16T00:56:46;15.98;;;6.57;;
55146;SDS011;41039;49.830;23.988;2022-10-16T00:59:15;12.20;;;7.20;;
55146;SDS011;41039;49.830;23.988;2022-10-16T01:01:41;12.10;;;7.80;;
55146;SDS011;41039;49.830;23.988;2022-10-16T01:04:06;11.60;;;6.65;;
55146;SDS011;41039;49.830;23.988;2022-10-16T01:06:52;14.00;;;7.20;;
55146;SDS011;41039;49.830;23.988;2022-10-16T01:09:22;15.32;;;7.10;;
55146;SDS011;41039;49.830;23.988;2022-10-16T01:11:50;12.23;;;6.70;;
55146;SDS011;41039;49.830;23.988;2022-10-16T01:17:07;15.27;;;7.25;;
55146;SDS011;41039;49.830;23.988;2022-10-16T01:22:06;12.50;;;6.78;;
55146;SDS011;41039;49.830;23.988;2022-10-16T01:24:36;10.57;;;6.60;;
55146;SDS011;41039;49.830;23.988;2022-10-16T01:29:50;14.20;;;7.28;;
55146;SDS011;41039;49.830;23.988;2022-10-16T01:32:28;11.88;;;6.80;;
55146;SDS011;41039;49.830;23.988;2022-10-16T01:35:05;15.38;;;7.43;;
55146;SDS011;41039;49.830;23.988;2022-10-16T01:37:42;11.10;;;6.95;;
55146;SDS011;41039;49.830;23.988;2022-10-16T01:40:12;12.77;;;6.68;;
55146;SDS011;41039;49.830;23.988;2022-10-16T01:42:39;16.95;;;7.28;;
55146;SDS011;41039;49.830;23.988;2022-10-16T01:45:05;14.23;;;7.88;;
55146;SDS011;41039;49.830;23.988;2022-10-16T01:47:32;10.85;;;7.20;;
55146;SDS011;41039;49.830;23.988;2022-10-16T01:49:58;12.45;;;7.13;;
55146;SDS011;41039;49.830;23.988;2022-10-16T01:52:25;13.90;;;8.88;;
55146;SDS011;41039;49.830;23.988;2022-10-16T01:54:52;13.93;;;7.78;;
55146;SDS011;41039;49.830;23.988;2022-10-16T01:57:18;12.02;;;7.60;;
55146;SDS011;41039;49.830;23.988;2022-10-16T01:59:46;11.10;;;7.28;;
55146;SDS011;41039;49.830;23.988;2022-10-16T02:02:12;15.63;;;7.53;;
55146;SDS011;41039;49.830;23.988;2022-10-16T02:04:39;12.48;;;7.80;;
55146;SDS011;41039;49.830;23.988;2022-10-16T02:07:07;10.23;;;6.45;;
55146;SDS011;41039;49.830;23.988;2022-10-16T02:09:33;13.52;;;7.43;;
55146;SDS011;41039;49.830;23.988;2022-10-16T02:11:59;12.93;;;7.35;;
55146;SDS011;41039;49.830;23.988;2022-10-16T02:14:27;12.13;;;7.20;;
55146;SDS011;41039;49.830;23.988;2022-10-16T02:16:53;14.13;;;5.85;;
55146;SDS011;41039;49.830;23.988;2022-10-16T02:19:18;15.70;;;6.80;;
55146;SDS011;41039;49.830;23.988;2022-10-16T02:21:53;14.38;;;7.53;;
55146;SDS011;41039;49.830;23.988;2022-10-16T02:24:24;15.82;;;7.32;;
55146;SDS011;41039;49.830;23.988;2022-10-16T02:29:17;15.27;;;7.90;;
55146;SDS011;41039;49.830;23.988;2022-10-16T02:31:46;13.68;;;7.05;;
55146;SDS011;41039;49.830;23.988;2022-10-16T02:34:14;12.63;;;7.25;;
55146;SDS011;41039;49.830;23.988;2022-10-16T02:36:40;11.68;;;6.70;;
55146;SDS011;41039;49.830;23.988;2022-10-16T02:39:06;13.30;;;6.60;;
55146;SDS011;41039;49.830;23.988;2022-10-16T02:41:33;10.68;;;7.13;;
55146;SDS011;41039;49.830;23.988;2022-10-16T02:43:58;10.93;;;6.55;;
55146;SDS011;41039;49.830;23.988;2022-10-16T02:46:23;12.93;;;7.03;;
55146;SDS011;41039;49.830;23.988;2022-10-16T02:48:48;13.25;;;7.57;;
55146;SDS011;41039;49.830;23.988;2022-10-16T02:51:14;13.20;;;7.18;;
55146;SDS011;41039;49.830;23.988;2022-10-16T02:53:39;12.68;;;6.45;;
55146;SDS011;41039;49.830;23.988;2022-10-16T02:56:04;15.60;;;7.40;;
55146;SDS011;41039;49.830;23.988;2022-10-16T02:58:29;15.35;;;7.40;;
55146;SDS011;41039;49.830;23.988;2022-10-16T03:00:55;13.63;;;7.38;;
55146;SDS011;41039;49.830;23.988;2022-10-16T03:03:20;9.75;;;6.15;;
55146;SDS011;41039;49.830;23.988;2022-10-16T03:05:45;14.23;;;7.40;;
55146;SDS011;41039;49.830;23.988;2022-10-16T03:08:11;13.13;;;7.32;;
55146;SDS011;41039;49.830;23.988;2022-10-16T03:10:36;11.75;;;6.55;;
55146;SDS011;41039;49.830;23.988;2022-10-16T03:13:01;13.93;;;7.07;;
55146;SDS011;41039;49.830;23.988;2022-10-16T03:15:27;15.20;;;6.88;;
55146;SDS011;41039;49.830;23.988;2022-10-16T03:17:53;13.27;;;7.35;;
55146;SDS011;41039;49.830;23.988;2022-10-16T03:20:19;14.77;;;7.10;;
55146;SDS011;41039;49.830;23.988;2022-10-16T03:22:44;13.98;;;7.20;;
55146;SDS011;41039;49.830;23.988;2022-10-16T03:25:09;14.27;;;7.70;;
55146;SDS011;41039;49.830;23.988;2022-10-16T03:27:34;13.40;;;7.22;;
55146;SDS011;41039;49.830;23.988;2022-10-16T03:30:00;12.40;;;7.20;;
55146;SDS011;41039;49.830;23.988;2022-10-16T03:32:25;19.13;;;7.75;;
55146;SDS011;41039;49.830;23.988;2022-10-16T03:34:50;13.20;;;6.78;;
55146;SDS011;41039;49.830;23.988;2022-10-16T03:37:15;11.40;;;7.03;;
55146;SDS011;41039;49.830;23.988;2022-10-16T03:39:41;11.95;;;6.60;;
55146;SDS011;41039;49.830;23.988;2022-10-16T03:42:06;12.85;;;7.60;;
55146;SDS011;41039;49.830;23.988;2022-10-16T03:44:32;11.48;;;7.47;;
55146;SDS011;41039;49.830;23.988;2022-10-16T03:46:57;11.77;;;6.85;;
55146;SDS011;41039;49.830;23.988;2022-10-16T03:49:22;11.10;;;7.15;;
55146;SDS011;41039;49.830;23.988;2022-10-16T03:51:47;12.32;;;7.22;;
55146;SDS011;41039;49.830;23.988;2022-10-16T03:54:12;13.63;;;6.90;;
55146;SDS011;41039;49.830;23.988;2022-10-16T03:56:38;12.45;;;7.55;;
55146;SDS011;41039;49.830;23.988;2022-10-16T03:59:03;11.57;;;6.55;;
55146;SDS011;41039;49.830;23.988;2022-10-16T04:01:28;11.82;;;6.15;;
55146;SDS011;41039;49.830;23.988;2022-10-16T04:03:54;11.13;;;6.78;;
55146;SDS011;41039;49.830;23.988;2022-10-16T04:06:19;11.82;;;7.40;;
55146;SDS011;41039;49.830;23.988;2022-10-16T04:08:44;13.90;;;7.22;;
55146;SDS011;41039;49.830;23.988;2022-10-16T04:11:10;12.20;;;7.10;;
55146;SDS011;41039;49.830;23.988;2022-10-16T04:13:35;14.85;;;7.90;;
55146;SDS011;41039;49.830;23.988;2022-10-16T04:16:01;15.38;;;7.97;;
55146;SDS011;41039;49.830;23.988;2022-10-16T04:18:26;17.08;;;8.20;;
55146;SDS011;41039;49.830;23.988;2022-10-16T04:20:54;14.25;;;7.50;;
55146;SDS011;41039;49.830;23.988;2022-10-16T04:23:19;13.05;;;8.15;;
55146;SDS011;41039;49.830;23.988;2022-10-16T04:25:45;15.13;;;8.82;;
55146;SDS011;41039;49.830;23.988;2022-10-16T04:28:10;14.88;;;8.57;;
55146;SDS011;41039;49.830;23.988;2022-10-16T04:30:37;13.07;;;8.00;;
55146;SDS011;41039;49.830;23.988;2022-10-16T04:33:02;11.68;;;7.78;;
55146;SDS011;41039;49.830;23.988;2022-10-16T04:35:27;12.80;;;7.80;;
55146;SDS011;41039;49.830;23.988;2022-10-16T04:37:53;16.63;;;11.07;;
55146;SDS011;41039;49.830;23.988;2022-10-16T04:40:18;13.32;;;6.95;;
55146;SDS011;41039;49.830;23.988;2022-10-16T04:42:43;19.58;;;10.07;;
55146;SDS011;41039;49.830;23.988;2022-10-16T04:45:09;15.95;;;9.70;;
55146;SDS011;41039;49.830;23.988;2022-10-16T04:47:34;21.48;;;12.10;;
55146;SDS011;41039;49.830;23.988;2022-10-16T04:49:59;15.52;;;9.63;;
55146;SDS011;41039;49.830;23.988;2022-10-16T04:52:26;14.65;;;7.53;;
55146;SDS011;41039;49.830;23.988;2022-10-16T04:54:51;12.02;;;7.15;;
55146;SDS011;41039;49.830;23.988;2022-10-16T04:57:16;12.38;;;7.32;;
55146;SDS011;41039;49.830;23.988;2022-10-16T04:59:42;13.38;;;8.02;;
55146;SDS011;41039;49.830;23.988;2022-10-16T05:02:07;20.17;;;9.88;;
55146;SDS011;41039;49.830;23.988;2022-10-16T05:04:32;15.27;;;7.82;;
55146;SDS011;41039;49.830;23.988;2022-10-16T05:06:57;13.52;;;8.32;;
55146;SDS011;41039;49.830;23.988;2022-10-16T05:09:23;11.23;;;7.30;;
55146;SDS011;41039;49.830;23.988;2022-10-16T05:11:48;14.45;;;8.60;;
55146;SDS011;41039;49.830;23.988;2022-10-16T05:14:13;17.85;;;12.13;;
55146;SDS011;41039;49.830;23.988;2022-10-16T05:16:39;13.25;;;8.52;;
55146;SDS011;41039;49.830;23.988;2022-10-16T05:19:04;13.73;;;8.73;;
55146;SDS011;41039;49.830;23.988;2022-10-16T05:21:29;15.43;;;9.52;;
55146;SDS011;41039;49.830;23.988;2022-10-16T05:23:54;13.95;;;7.65;;
55146;SDS011;41039;49.830;23.988;2022-10-16T05:26:20;15.00;;;9.43;;
55146;SDS011;41039;49.830;23.988;2022-10-16T05:28:46;22.80;;;15.02;;
55146;SDS011;41039;49.830;23.988;2022-10-16T05:31:11;13.18;;;8.77;;
55146;SDS011;41039;49.830;23.988;2022-10-16T05:33:36;15.48;;;8.77;;
55146;SDS011;41039;49.830;23.988;2022-10-16T05:36:02;17.90;;;9.90;;
55146;SDS011;41039;49.830;23.988;2022-10-16T05:38:28;12.80;;;8.00;;
55146;SDS011;41039;49.830;23.988;2022-10-16T05:40:53;14.07;;;9.07;;
55146;SDS011;41039;49.830;23.988;2022-10-16T05:43:19;15.95;;;9.80;;
55146;SDS011;41039;49.830;23.988;2022-10-16T05:45:44;11.98;;;7.78;;
55146;SDS011;41039;49.830;23.988;2022-10-16T05:48:09;14.57;;;7.88;;
55146;SDS011;41039;49.830;23.988;2022-10-16T05:50:35;12.25;;;7.30;;
55146;SDS011;41039;49.830;23.988;2022-10-16T05:53:00;12.18;;;7.07;;
55146;SDS011;41039;49.830;23.988;2022-10-16T05:55:25;15.07;;;8.20;;
55146;SDS011;41039;49.830;23.988;2022-10-16T05:57:53;14.20;;;8.15;;
55146;SDS011;41039;49.830;23.988;2022-10-16T06:00:18;12.52;;;7.47;;
55146;SDS011;41039;49.830;23.988;2022-10-16T06:02:44;11.70;;;7.72;;
55146;SDS011;41039;49.830;23.988;2022-10-16T06:05:09;14.02;;;8.25;;
55146;SDS011;41039;49.830;23.988;2022-10-16T06:07:35;12.27;;;7.07;;
55146;SDS011;41039;49.830;23.988;2022-10-16T06:10:00;13.23;;;8.45;;
55146;SDS011;41039;49.830;23.988;2022-10-16T06:12:26;14.23;;;8.27;;
55146;SDS011;41039;49.830;23.988;2022-10-16T06:14:51;14.18;;;11.02;;
55146;SDS011;41039;49.830;23.988;2022-10-16T06:17:17;12.70;;;9.07;;
55146;SDS011;41039;49.830;23.988;2022-10-16T06:19:42;15.57;;;8.60;;
55146;SDS011;41039;49.830;23.988;2022-10-16T06:22:07;16.83;;;8.93;;
55146;SDS011;41039;49.830;23.988;2022-10-16T06:24:32;12.73;;;8.07;;
55146;SDS011;41039;49.830;23.988;2022-10-16T06:26:58;13.27;;;7.82;;
55146;SDS011;41039;49.830;23.988;2022-10-16T06:29:23;12.23;;;8.15;;
55146;SDS011;41039;49.830;23.988;2022-10-16T06:31:48;11.98;;;7.70;;
55146;SDS011;41039;49.830;23.988;2022-10-16T06:34:13;11.40;;;7.10;;
55146;SDS011;41039;49.830;23.988;2022-10-16T06:36:39;10.70;;;7.00;;
55146;SDS011;41039;49.830;23.988;2022-10-16T06:39:05;13.48;;;7.63;;
55146;SDS011;41039;49.830;23.988;2022-10-16T06:41:32;11.88;;;6.68;;
55146;SDS011;41039;49.830;23.988;2022-10-16T06:43:57;10.27;;;6.00;;
55146;SDS011;41039;49.830;23.988;2022-10-16T06:46:23;12.23;;;7.57;;
55146;SDS011;41039;49.830;23.988;2022-10-16T06:48:48;13.05;;;6.65;;
55146;SDS011;41039;49.830;23.988;2022-10-16T06:51:15;9.52;;;6.43;;
55146;SDS011;41039;49.830;23.988;2022-10-16T06:53:42;10.82;;;6.82;;
55146;SDS011;41039;49.830;23.988;2022-10-16T06:56:08;10.48;;;6.65;;
55146;SDS011;41039;49.830;23.988;2022-10-16T06:58:34;13.80;;;7.18;;
55146;SDS011;41039;49.830;23.988;2022-10-16T07:00:59;10.57;;;6.28;;
55146;SDS011;41039;49.830;23.988;2022-10-16T07:03:25;10.30;;;5.97;;
55146;SDS011;41039;49.830;23.988;2022-10-16T07:05:50;10.52;;;5.88;;
55146;SDS011;41039;49.830;23.988;2022-10-16T07:08:15;8.77;;;6.53;;
55146;SDS011;41039;49.830;23.988;2022-10-16T07:10:40;9.57;;;6.05;;
55146;SDS011;41039;49.830;23.988;2022-10-16T07:13:06;11.95;;;6.28;;
55146;SDS011;41039;49.830;23.988;2022-10-16T07:15:32;12.27;;;6.95;;
55146;SDS011;41039;49.830;23.988;2022-10-16T07:17:58;7.53;;;6.13;;
55146;SDS011;41039;49.830;23.988;2022-10-16T07:20:23;11.50;;;7.50;;
55146;SDS011;41039;49.830;23.988;2022-10-16T07:22:48;10.48;;;6.40;;
55146;SDS011;41039;49.830;23.988;2022-10-16T07:25:13;11.82;;;6.97;;
55146;SDS011;41039;49.830;23.988;2022-10-16T07:27:39;12.00;;;6.65;;
55146;SDS011;41039;49.830;23.988;2022-10-16T07:30:04;13.00;;;7.15;;
55146;SDS011;41039;49.830;23.988;2022-10-16T07:32:30;11.98;;;6.88;;
55146;SDS011;41039;49.830;23.988;2022-10-16T07:34:56;8.52;;;6.40;;
55146;SDS011;41039;49.830;23.988;2022-10-16T07:37:21;9.57;;;6.82;;
55146;SDS011;41039;49.830;23.988;2022-10-16T07:39:46;10.02;;;6.85;;
55146;SDS011;41039;49.830;23.988;2022-10-16T07:42:12;12.43;;;6.88;;
55146;SDS011;41039;49.830;23.988;2022-10-16T07:44:37;10.10;;;6.43;;
55146;SDS011;41039;49.830;23.988;2022-10-16T07:47:02;10.27;;;5.43;;
55146;SDS011;41039;49.830;23.988;2022-10-16T07:49:28;13.95;;;7.10;;
55146;SDS011;41039;49.830;23.988;2022-10-16T07:51:53;13.00;;;6.07;;
55146;SDS011;41039;49.830;23.988;2022-10-16T07:54:18;12.52;;;7.47;;
55146;SDS011;41039;49.830;23.988;2022-10-16T07:56:43;12.98;;;7.13;;
55146;SDS011;41039;49.830;23.988;2022-10-16T07:59:09;13.18;;;6.63;;
55146;SDS011;41039;49.830;23.988;2022-10-16T08:01:34;9.80;;;6.53;;
55146;SDS011;41039;49.830;23.988;2022-10-16T08:03:59;13.77;;;9.40;;
55146;SDS011;41039;49.830;23.988;2022-10-16T08:06:24;14.63;;;8.52;;
55146;SDS011;41039;49.830;23.988;2022-10-16T08:08:50;10.82;;;6.05;;
55146;SDS011;41039;49.830;23.988;2022-10-16T08:11:15;9.77;;;5.97;;
55146;SDS011;41039;49.830;23.988;2022-10-16T08:13:41;11.15;;;6.22;;
55146;SDS011;41039;49.830;23.988;2022-10-16T08:16:06;11.40;;;6.32;;
55146;SDS011;41039;49.830;23.988;2022-10-16T08:18:36;9.88;;;6.38;;
55146;SDS011;41039;49.830;23.988;2022-10-16T08:21:02;10.05;;;5.90;;
55146;SDS011;41039;49.830;23.988;2022-10-16T08:23:27;14.63;;;8.48;;
55146;SDS011;41039;49.830;23.988;2022-10-16T08:25:56;11.55;;;7.30;;
55146;SDS011;41039;49.830;23.988;2022-10-16T08:28:22;12.43;;;6.57;;
55146;SDS011;41039;49.830;23.988;2022-10-16T08:30:47;10.25;;;5.80;;
55146;SDS011;41039;49.830;23.988;2022-10-16T08:33:13;9.35;;;5.97;;
55146;SDS011;41039;49.830;23.988;2022-10-16T08:35:38;10.95;;;7.35;;
55146;SDS011;41039;49.830;23.988;2022-10-16T08:38:04;9.43;;;5.90;;
55146;SDS011;41039;49.830;23.988;2022-10-16T08:40:30;9.68;;;5.45;;
55146;SDS011;41039;49.830;23.988;2022-10-16T08:48:02;9.25;;;5.32;;
55146;SDS011;41039;49.830;23.988;2022-10-16T08:50:30;9.27;;;5.20;;
55146;SDS011;41039;49.830;23.988;2022-10-16T08:52:56;9.55;;;5.80;;
55146;SDS011;41039;49.830;23.988;2022-10-16T08:55:39;7.40;;;5.15;;
55146;SDS011;41039;49.830;23.988;2022-10-16T08:58:16;7.70;;;5.43;;
55146;SDS011;41039;49.830;23.988;2022-10-16T09:00:43;7.53;;;4.53;;
55146;SDS011;41039;49.830;23.988;2022-10-16T09:10:52;6.97;;;4.60;;
55146;SDS011;41039;49.830;23.988;2022-10-16T09:13:28;8.75;;;5.18;;
55146;SDS011;41039;49.830;23.988;2022-10-16T09:18:26;7.57;;;5.05;;
55146;SDS011;41039;49.830;23.988;2022-10-16T09:23:47;8.18;;;5.38;;
55146;SDS011;41039;49.830;23.988;2022-10-16T09:26:14;6.93;;;4.40;;
55146;SDS011;41039;49.830;23.988;2022-10-16T09:28:40;10.48;;;4.97;;
55146;SDS011;41039;49.830;23.988;2022-10-16T09:31:07;8.45;;;4.90;;
55146;SDS011;41039;49.830;23.988;2022-10-16T09:33:36;8.32;;;4.70;;
55146;SDS011;41039;49.830;23.988;2022-10-16T09:36:03;6.57;;;4.07;;
55146;SDS011;41039;49.830;23.988;2022-10-16T09:38:30;8.57;;;5.13;;
55146;SDS011;41039;49.830;23.988;2022-10-16T09:40:57;7.72;;;4.28;;
55146;SDS011;41039;49.830;23.988;2022-10-16T09:43:24;8.60;;;4.95;;
55146;SDS011;41039;49.830;23.988;2022-10-16T09:45:56;13.38;;;4.53;;
55146;SDS011;41039;49.830;23.988;2022-10-16T09:48:21;6.75;;;4.45;;
55146;SDS011;41039;49.830;23.988;2022-10-16T09:51:00;6.25;;;4.00;;
55146;SDS011;41039;49.830;23.988;2022-10-16T09:53:42;5.72;;;4.03;;
55146;SDS011;41039;49.830;23.988;2022-10-16T09:56:09;6.28;;;4.43;;
55146;SDS011;41039;49.830;23.988;2022-10-16T09:58:35;8.05;;;3.90;;
55146;SDS011;41039;49.830;23.988;2022-10-16T10:01:00;5.82;;;4.22;;
55146;SDS011;41039;49.830;23.988;2022-10-16T10:05:57;5.90;;;4.40;;
55146;SDS011;41039;49.830;23.988;2022-10-16T10:08:22;8.52;;;4.05;;
55146;SDS011;41039;49.830;23.988;2022-10-16T10:10:47;8.27;;;5.63;;
55146;SDS011;41039;49.830;23.988;2022-10-16T10:13:19;11.23;;;7.45;;
55146;SDS011;41039;49.830;23.988;2022-10-16T10:15:45;10.77;;;5.37;;
55146;SDS011;41039;49.830;23.988;2022-10-16T10:18:18;14.23;;;9.95;;
55146;SDS011;41039;49.830;23.988;2022-10-16T10:20:44;7.60;;;5.63;;
55146;SDS011;41039;49.830;23.988;2022-10-16T10:23:20;7.20;;;3.45;;
55146;SDS011;41039;49.830;23.988;2022-10-16T10:28:45;5.35;;;3.75;;
55146;SDS011;41039;49.830;23.988;2022-10-16T10:31:14;8.75;;;5.65;;
55146;SDS011;41039;49.830;23.988;2022-10-16T10:36:38;9.30;;;4.30;;
55146;SDS011;41039;49.830;23.988;2022-10-16T10:54:49;6.63;;;3.42;;
55146;SDS011;41039;49.830;23.988;2022-10-16T10:57:22;5.53;;;3.47;;
55146;SDS011;41039;49.830;23.988;2022-10-16T11:02:33;5.50;;;4.40;;
55146;SDS011;41039;49.830;23.988;2022-10-16T11:07:36;6.10;;;3.50;;
55146;SDS011;41039;49.830;23.988;2022-10-16T11:10:04;6.85;;;3.97;;
55146;SDS011;41039;49.830;23.988;2022-10-16T11:12:40;8.50;;;4.40;;
55146;SDS011;41039;49.830;23.988;2022-10-16T11:15:11;6.30;;;4.47;;
55146;SDS011;41039;49.830;23.988;2022-10-16T11:17:42;9.85;;;4.63;;
55146;SDS011;41039;49.830;23.988;2022-10-16T11:22:52;5.28;;;3.65;;
55146;SDS011;41039;49.830;23.988;2022-10-16T11:25:22;7.30;;;5.25;;
55146;SDS011;41039;49.830;23.988;2022-10-16T11:27:50;6.97;;;4.38;;
55146;SDS011;41039;49.830;23.988;2022-10-16T11:30:22;5.75;;;3.72;;
55146;SDS011;41039;49.830;23.988;2022-10-16T11:33:11;6.38;;;4.13;;
55146;SDS011;41039;49.830;23.988;2022-10-16T11:38:21;7.38;;;4.10;;
55146;SDS011;41039;49.830;23.988;2022-10-16T11:40:48;7.55;;;4.40;;
55146;SDS011;41039;49.830;23.988;2022-10-16T11:43:17;6.05;;;3.47;;
55146;SDS011;41039;49.830;23.988;2022-10-16T11:46:19;8.25;;;4.47;;
55146;SDS011;41039;49.830;23.988;2022-10-16T11:48:47;7.15;;;3.90;;
55146;SDS011;41039;49.830;23.988;2022-10-16T11:51:16;6.78;;;3.75;;
55146;SDS011;41039;49.830;23.988;2022-10-16T11:53:48;7.45;;;4.15;;
55146;SDS011;41039;49.830;23.988;2022-10-16T11:56:17;5.95;;;3.58;;
55146;SDS011;41039;49.830;23.988;2022-10-16T12:01:42;7.00;;;4.43;;
55146;SDS011;41039;49.830;23.988;2022-10-16T12:06:40;7.95;;;4.13;;
55146;SDS011;41039;49.830;23.988;2022-10-16T12:11:45;9.30;;;4.65;;
55146;SDS011;41039;49.830;23.988;2022-10-16T12:16:37;4.73;;;3.57;;
55146;SDS011;41039;49.830;23.988;2022-10-16T12:19:07;7.68;;;4.40;;
55146;SDS011;41039;49.830;23.988;2022-10-16T12:21:34;5.87;;;3.67;;
55146;SDS011;41039;49.830;23.988;2022-10-16T12:24:00;7.38;;;3.85;;
55146;SDS011;41039;49.830;23.988;2022-10-16T12:26:29;7.53;;;3.83;;
55146;SDS011;41039;49.830;23.988;2022-10-16T12:28:54;6.68;;;4.05;;
55146;SDS011;41039;49.830;23.988;2022-10-16T12:31:20;6.72;;;3.85;;
55146;SDS011;41039;49.830;23.988;2022-10-16T12:36:30;7.47;;;4.63;;
55146;SDS011;41039;49.830;23.988;2022-10-16T12:38:56;7.68;;;4.72;;
55146;SDS011;41039;49.830;23.988;2022-10-16T12:43:50;7.03;;;3.60;;
55146;SDS011;41039;49.830;23.988;2022-10-16T12:48:41;6.03;;;3.60;;
55146;SDS011;41039;49.830;23.988;2022-10-16T12:54:00;5.28;;;3.72;;
55146;SDS011;41039;49.830;23.988;2022-10-16T12:56:35;6.65;;;3.72;;
55146;SDS011;41039;49.830;23.988;2022-10-16T13:01:33;10.70;;;3.80;;
55146;SDS011;41039;49.830;23.988;2022-10-16T13:04:06;9.05;;;4.60;;
55146;SDS011;41039;49.830;23.988;2022-10-16T13:06:38;6.40;;;3.70;;
55146;SDS011;41039;49.830;23.988;2022-10-16T13:20:00;6.93;;;4.32;;
55146;SDS011;41039;49.830;23.988;2022-10-16T13:22:29;5.60;;;4.32;;
55146;SDS011;41039;49.830;23.988;2022-10-16T13:29:53;7.33;;;3.93;;
55146;SDS011;41039;49.830;23.988;2022-10-16T13:32:20;7.65;;;3.85;;
55146;SDS011;41039;49.830;23.988;2022-10-16T13:34:47;6.03;;;4.28;;
55146;SDS011;41039;49.830;23.988;2022-10-16T13:37:22;6.70;;;4.25;;
55146;SDS011;41039;49.830;23.988;2022-10-16T13:39:48;6.05;;;3.83;;
55146;SDS011;41039;49.830;23.988;2022-10-16T13:44:48;7.63;;;4.22;;
55146;SDS011;41039;49.830;23.988;2022-10-16T13:49:39;7.15;;;3.70;;
55146;SDS011;41039;49.830;23.988;2022-10-16T13:52:04;9.50;;;6.25;;
55146;SDS011;41039;49.830;23.988;2022-10-16T13:54:29;11.95;;;6.32;;
55146;SDS011;41039;49.830;23.988;2022-10-16T13:56:55;10.70;;;6.50;;
55146;SDS011;41039;49.830;23.988;2022-10-16T13:59:24;9.25;;;4.80;;
55146;SDS011;41039;49.830;23.988;2022-10-16T14:01:51;9.95;;;5.88;;
55146;SDS011;41039;49.830;23.988;2022-10-16T14:04:17;12.35;;;6.38;;
55146;SDS011;41039;49.830;23.988;2022-10-16T14:06:44;9.63;;;6.65;;
55146;SDS011;41039;49.830;23.988;2022-10-16T14:11:45;8.80;;;6.15;;
55146;SDS011;41039;49.830;23.988;2022-10-16T14:14:11;7.28;;;5.53;;
55146;SDS011;41039;49.830;23.988;2022-10-16T14:16:37;8.27;;;5.75;;
55146;SDS011;41039;49.830;23.988;2022-10-16T14:19:05;12.32;;;6.43;;
55146;SDS011;41039;49.830;23.988;2022-10-16T14:21:32;10.00;;;6.10;;
55146;SDS011;41039;49.830;23.988;2022-10-16T14:23:57;8.23;;;5.53;;
55146;SDS011;41039;49.830;23.988;2022-10-16T14:26:23;10.98;;;5.95;;
55146;SDS011;41039;49.830;23.988;2022-10-16T14:29:00;11.05;;;5.45;;
55146;SDS011;41039;49.830;23.988;2022-10-16T14:31:27;9.30;;;5.22;;
55146;SDS011;41039;49.830;23.988;2022-10-16T14:33:52;13.80;;;5.72;;
55146;SDS011;41039;49.830;23.988;2022-10-16T14:36:18;13.52;;;5.40;;
55146;SDS011;41039;49.830;23.988;2022-10-16T14:39:26;9.50;;;5.13;;
55146;SDS011;41039;49.830;23.988;2022-10-16T14:41:33;9.02;;;6.00;;
55146;SDS011;41039;49.830;23.988;2022-10-16T14:44:01;7.88;;;4.85;;
55146;SDS011;41039;49.830;23.988;2022-10-16T14:46:32;8.60;;;4.93;;
55146;SDS011;41039;49.830;23.988;2022-10-16T14:49:03;7.85;;;4.82;;
55146;SDS011;41039;49.830;23.988;2022-10-16T14:51:29;8.45;;;4.72;;
55146;SDS011;41039;49.830;23.988;2022-10-16T14:53:54;8.65;;;4.55;;
55146;SDS011;41039;49.830;23.988;2022-10-16T14:56:21;8.30;;;5.05;;
55146;SDS011;41039;49.830;23.988;2022-10-16T14:58:47;8.13;;;5.60;;
55146;SDS011;41039;49.830;23.988;2022-10-16T15:01:12;8.40;;;5.43;;
55146;SDS011;41039;49.830;23.988;2022-10-16T15:03:38;11.45;;;6.85;;
55146;SDS011;41039;49.830;23.988;2022-10-16T15:06:03;9.23;;;5.93;;
55146;SDS011;41039;49.830;23.988;2022-10-16T15:08:28;10.65;;;6.20;;
55146;SDS011;41039;49.830;23.988;2022-10-16T15:10:54;11.65;;;5.82;;
55146;SDS011;41039;49.830;23.988;2022-10-16T15:13:19;8.40;;;5.70;;
55146;SDS011;41039;49.830;23.988;2022-10-16T15:15:45;9.23;;;5.97;;
55146;SDS011;41039;49.830;23.988;2022-10-16T15:18:10;11.32;;;6.53;;
55146;SDS011;41039;49.830;23.988;2022-10-16T15:20:37;9.65;;;5.90;;
55146;SDS011;41039;49.830;23.988;2022-10-16T15:23:08;8.68;;;5.68;;
55146;SDS011;41039;49.830;23.988;2022-10-16T15:25:45;9.00;;;5.60;;
55146;SDS011;41039;49.830;23.988;2022-10-16T15:28:11;10.13;;;5.80;;
55146;SDS011;41039;49.830;23.988;2022-10-16T15:30:37;10.02;;;6.35;;
55146;SDS011;41039;49.830;23.988;2022-10-16T15:33:03;10.52;;;5.70;;
55146;SDS011;41039;49.830;23.988;2022-10-16T15:35:28;13.38;;;6.60;;
55146;SDS011;41039;49.830;23.988;2022-10-16T15:37:53;13.85;;;6.60;;
55146;SDS011;41039;49.830;23.988;2022-10-16T15:40:19;12.30;;;6.35;;
55146;SDS011;41039;49.830;23.988;2022-10-16T15:42:45;13.40;;;6.32;;
55146;SDS011;41039;49.830;23.988;2022-10-16T15:45:11;10.25;;;6.35;;
55146;SDS011;41039;49.830;23.988;2022-10-16T15:47:36;15.90;;;7.43;;
55146;SDS011;41039;49.830;23.988;2022-10-16T15:50:02;11.57;;;6.88;;
55146;SDS011;41039;49.830;23.988;2022-10-16T15:52:27;11.52;;;6.80;;
55146;SDS011;41039;49.830;23.988;2022-10-16T15:54:53;15.07;;;7.18;;
55146;SDS011;41039;49.830;23.988;2022-10-16T15:57:18;14.57;;;7.65;;
55146;SDS011;41039;49.830;23.988;2022-10-16T15:59:44;12.38;;;6.10;;
55146;SDS011;41039;49.830;23.988;2022-10-16T16:02:09;13.90;;;6.55;;
55146;SDS011;41039;49.830;23.988;2022-10-16T16:04:34;13.02;;;6.53;;
55146;SDS011;41039;49.830;23.988;2022-10-16T16:07:00;13.20;;;6.10;;
55146;SDS011;41039;49.830;23.988;2022-10-16T16:09:26;10.07;;;5.50;;
55146;SDS011;41039;49.830;23.988;2022-10-16T16:11:51;13.98;;;6.57;;
55146;SDS011;41039;49.830;23.988;2022-10-16T16:14:17;13.88;;;6.45;;
55146;SDS011;41039;49.830;23.988;2022-10-16T16:16:42;8.63;;;5.53;;